Time;durP1;ratioP1;P1;durP2;ratioP2;P2;SDS_P1;SDS_P2;PMS_P1;PMS_P2;Temp;Humidity;BMP_temperature;BMP_pressure;BME280_temperature;BME280_humidity;BME280_pressure;Samples;Min_cycle;Max_cycle;Signal;HPM_P1;HPM_P2
2021/05/14 00:00:45;;;;;;;2.13;1.00;;;13.10;72.20;;;;;;4949783;29;20059;-69
2021/05/14 00:03:10;;;;;;;3.25;1.23;;;13.10;72.20;;;;;;4948137;29;20063;-69
2021/05/14 00:05:36;;;;;;;1.88;1.10;;;13.10;72.20;;;;;;4947977;29;20086;-68
2021/05/14 00:08:02;;;;;;;3.08;1.10;;;13.10;72.20;;;;;;4947997;29;20039;-69
2021/05/14 00:10:28;;;;;;;1.77;1.15;;;13.10;72.20;;;;;;4947936;29;20334;-68
2021/05/14 00:12:54;;;;;;;2.10;1.10;;;13.10;72.10;;;;;;4949957;29;20026;-69
2021/05/14 00:15:20;;;;;;;1.92;1.10;;;13.10;71.90;;;;;;4948043;29;20043;-68
2021/05/14 00:17:46;;;;;;;3.95;1.10;;;13.10;71.90;;;;;;4948041;29;20103;-68
2021/05/14 00:20:12;;;;;;;2.00;1.20;;;13.10;71.80;;;;;;4948086;29;20047;-68
2021/05/14 00:22:38;;;;;;;2.25;1.20;;;13.10;71.80;;;;;;4931539;29;20031;-68
2021/05/14 00:25:07;;;;;;;1.85;1.13;;;13.10;72.00;;;;;;4949960;29;20044;-69
2021/05/14 00:27:32;;;;;;;3.38;1.05;;;13.10;71.90;;;;;;4948203;29;20066;-69
2021/05/14 00:29:58;;;;;;;3.17;1.30;;;13.00;71.70;;;;;;4947840;29;20035;-69
2021/05/14 00:32:23;;;;;;;1.90;1.10;;;13.00;71.90;;;;;;4947753;29;20055;-69
2021/05/14 00:34:49;;;;;;;3.50;1.23;;;13.00;71.80;;;;;;4947990;29;20102;-69
2021/05/14 00:37:14;;;;;;;2.90;1.10;;;13.00;72.00;;;;;;4949154;29;20231;-69
2021/05/14 00:39:40;;;;;;;2.50;1.38;;;13.00;72.00;;;;;;4947565;29;20242;-69
2021/05/14 00:42:05;;;;;;;1.60;1.13;;;13.00;72.00;;;;;;4947743;29;20115;-69
2021/05/14 00:44:39;;;;;;;1.85;1.05;;;13.00;71.80;;;;;;4947397;29;20046;-69
2021/05/14 00:47:08;;;;;;;3.03;1.30;;;12.90;72.00;;;;;;4947472;29;20253;-69
2021/05/14 00:49:39;;;;;;;3.95;1.20;;;13.00;71.80;;;;;;4947402;29;20071;-69
2021/05/14 00:52:05;;;;;;;1.40;0.93;;;13.00;71.90;;;;;;4949108;29;20028;-69
2021/05/14 00:54:30;;;;;;;3.28;1.30;;;13.00;71.80;;;;;;4947764;29;20365;-69
2021/05/14 00:56:57;;;;;;;2.47;1.10;;;13.00;71.60;;;;;;4930678;29;20099;-69
2021/05/14 00:59:23;;;;;;;14.90;1.60;;;12.90;71.50;;;;;;4947336;29;20060;-69
2021/05/14 01:01:48;;;;;;;2.10;1.05;;;12.90;71.50;;;;;;4947260;29;20103;-69
2021/05/14 01:04:14;;;;;;;1.48;1.02;;;12.90;71.40;;;;;;4948812;29;20031;-69
2021/05/14 01:06:39;;;;;;;1.27;1.00;;;12.90;71.30;;;;;;4947376;29;20035;-69
2021/05/14 01:09:05;;;;;;;3.15;1.13;;;12.90;71.50;;;;;;4947104;29;20289;-69
2021/05/14 01:11:31;;;;;;;4.18;1.10;;;12.90;71.40;;;;;;4947296;29;20102;-69
2021/05/14 01:13:57;;;;;;;4.10;1.30;;;12.80;71.30;;;;;;4947175;29;20036;-69
2021/05/14 01:16:23;;;;;;;5.55;1.20;;;12.90;71.10;;;;;;4946702;29;20062;-68
2021/05/14 01:18:49;;;;;;;2.13;0.93;;;12.80;71.00;;;;;;4948650;29;20360;-69
2021/05/14 01:21:15;;;;;;;2.22;1.00;;;12.80;71.10;;;;;;4946833;29;20033;-69
2021/05/14 01:23:40;;;;;;;1.50;0.90;;;12.80;71.20;;;;;;4946853;29;20350;-69
2021/05/14 01:26:10;;;;;;;4.05;1.20;;;12.80;71.10;;;;;;4946784;29;20032;-69
2021/05/14 01:28:36;;;;;;;2.03;1.00;;;12.80;71.00;;;;;;4914157;29;20038;-69
2021/05/14 01:31:01;;;;;;;1.77;1.02;;;12.80;71.10;;;;;;4931642;29;20051;-69
2021/05/14 01:33:27;;;;;;;2.00;0.98;;;12.80;71.00;;;;;;4947004;29;20031;-69
2021/05/14 01:35:52;;;;;;;1.40;0.80;;;12.80;70.90;;;;;;4947005;29;20052;-69
2021/05/14 01:38:18;;;;;;;2.88;1.30;;;12.70;71.00;;;;;;4946757;29;20051;-69
2021/05/14 01:40:43;;;;;;;1.98;1.10;;;12.70;70.90;;;;;;4946391;29;20036;-68
2021/05/14 01:43:09;;;;;;;2.45;1.10;;;12.70;70.70;;;;;;4947978;29;20062;-69
2021/05/14 01:45:34;;;;;;;3.80;1.00;;;12.80;70.90;;;;;;4946897;29;20043;-69
2021/05/14 01:48:00;;;;;;;1.77;1.17;;;12.70;70.70;;;;;;4946630;29;20043;-69
2021/05/14 01:50:25;;;;;;;1.42;1.00;;;12.70;70.80;;;;;;4946390;29;20059;-69
2021/05/14 01:52:51;;;;;;;1.67;1.00;;;12.70;70.60;;;;;;4946252;29;20039;-69
2021/05/14 01:55:16;;;;;;;4.00;1.00;;;12.60;70.70;;;;;;4948185;29;20086;-69
2021/05/14 01:57:42;;;;;;;3.50;1.00;;;12.60;70.60;;;;;;4946129;29;20035;-69
2021/05/14 02:00:08;;;;;;;2.05;0.80;;;12.60;70.60;;;;;;4945959;29;20350;-69
2021/05/14 02:02:34;;;;;;;2.03;1.00;;;12.60;70.70;;;;;;4946191;29;20044;-69
2021/05/14 02:04:59;;;;;;;1.55;1.00;;;12.50;70.50;;;;;;4946157;29;20098;-69
2021/05/14 02:07:25;;;;;;;2.30;0.98;;;12.50;70.40;;;;;;4946197;29;20416;-69
2021/05/14 02:09:52;;;;;;;2.45;1.17;;;12.50;70.10;;;;;;4947886;29;20024;-69
2021/05/14 02:12:17;;;;;;;2.03;0.90;;;12.50;70.20;;;;;;4946294;29;20226;-69
2021/05/14 02:14:43;;;;;;;2.33;0.93;;;12.50;70.20;;;;;;4945804;29;20043;-69
2021/05/14 02:17:08;;;;;;;4.35;1.00;;;12.40;70.10;;;;;;4945797;29;20275;-69
2021/05/14 02:19:34;;;;;;;2.90;1.10;;;12.40;69.90;;;;;;4946254;29;20035;-69
2021/05/14 02:22:00;;;;;;;2.22;0.80;;;12.40;69.90;;;;;;4947532;29;20027;-69
2021/05/14 02:24:25;;;;;;;2.55;1.20;;;12.40;69.70;;;;;;4946067;29;20043;-69
2021/05/14 02:26:51;;;;;;;1.98;0.93;;;12.40;69.70;;;;;;4945788;29;20113;-69
2021/05/14 02:29:16;;;;;;;2.63;1.05;;;12.30;69.80;;;;;;4945706;29;20036;-69
2021/05/14 02:31:42;;;;;;;1.77;1.05;;;12.30;69.70;;;;;;4946000;29;20387;-69
2021/05/14 02:34:07;;;;;;;3.60;1.17;;;12.20;69.50;;;;;;4947528;29;20035;-69
2021/05/14 02:36:33;;;;;;;1.60;0.85;;;12.30;69.50;;;;;;4946022;29;20327;-69
2021/05/14 02:38:58;;;;;;;1.60;1.00;;;12.20;69.70;;;;;;4945820;29;20039;-69
2021/05/14 02:41:24;;;;;;;2.35;1.10;;;12.20;69.40;;;;;;4945600;29;20241;-69
2021/05/14 02:43:49;;;;;;;1.52;0.93;;;12.20;69.50;;;;;;4945499;29;20038;-69
2021/05/14 02:46:15;;;;;;;2.38;1.08;;;12.10;69.40;;;;;;4947039;29;20039;-69
2021/05/14 02:48:40;;;;;;;3.30;1.48;;;12.10;69.30;;;;;;4945772;29;20047;-69
2021/05/14 02:51:06;;;;;;;4.15;0.90;;;12.10;69.00;;;;;;4945781;29;20048;-69
2021/05/14 02:53:32;;;;;;;1.17;0.82;;;12.10;69.30;;;;;;4945325;29;20403;-69
2021/05/14 02:55:57;;;;;;;1.10;0.80;;;12.10;69.00;;;;;;4945123;29;20369;-69
2021/05/14 02:58:23;;;;;;;1.17;0.80;;;12.00;68.90;;;;;;4945139;29;20120;-69
2021/05/14 03:00:48;;;;;;;4.40;1.20;;;12.00;68.80;;;;;;4946754;29;20103;-69
2021/05/14 03:03:14;;;;;;;3.03;0.90;;;12.00;68.80;;;;;;4945594;29;20071;-69
2021/05/14 03:05:39;;;;;;;5.43;0.90;;;11.90;68.40;;;;;;4945203;29;20052;-68
2021/05/14 03:08:05;;;;;;;3.15;1.00;;;11.90;68.70;;;;;;4944709;29;20036;-68
2021/05/14 03:10:30;;;;;;;5.28;1.13;;;11.90;68.70;;;;;;4944272;29;20038;-67
2021/05/14 03:12:56;;;;;;;1.48;0.80;;;11.90;68.70;;;;;;4946624;29;20323;-68
2021/05/14 03:15:21;;;;;;;3.75;1.80;;;11.90;68.80;;;;;;4945431;29;20050;-69
2021/05/14 03:17:47;;;;;;;1.95;0.90;;;11.90;68.60;;;;;;4945271;29;20063;-69
2021/05/14 03:20:13;;;;;;;2.35;1.00;;;11.90;68.60;;;;;;4945116;29;20050;-69
2021/05/14 03:22:38;;;;;;;1.73;0.90;;;11.80;68.30;;;;;;4945140;29;20327;-68
2021/05/14 03:25:05;;;;;;;1.70;0.80;;;11.80;68.50;;;;;;4946896;29;20035;-69
2021/05/14 03:27:31;;;;;;;2.25;1.10;;;11.80;68.40;;;;;;4945421;29;20036;-69
2021/05/14 03:29:58;;;;;;;2.22;0.90;;;11.80;68.40;;;;;;4945287;29;20070;-69
2021/05/14 03:32:23;;;;;;;2.95;0.93;;;11.70;68.20;;;;;;4945060;29;20059;-69
2021/05/14 03:34:49;;;;;;;3.53;1.13;;;11.70;68.20;;;;;;4944875;29;20051;-69
2021/05/14 03:37:14;;;;;;;3.95;1.10;;;11.70;68.00;;;;;;4946772;29;20031;-69
2021/05/14 03:39:44;;;;;;;3.08;1.20;;;11.50;68.20;;;;;;4944857;29;20040;-69
2021/05/14 03:42:18;;;;;;;1.38;0.88;;;11.60;68.30;;;;;;4945031;29;20047;-69
2021/05/14 03:44:44;;;;;;;4.35;0.70;;;11.60;68.30;;;;;;4945135;29;20035;-69
2021/05/14 03:47:09;;;;;;;2.47;0.90;;;11.50;68.50;;;;;;4944923;29;20078;-69
2021/05/14 03:49:36;;;;;;;3.05;1.00;;;11.50;68.40;;;;;;4944742;29;20034;-68
2021/05/14 03:52:04;;;;;;;1.83;0.90;;;11.50;68.30;;;;;;4946660;29;20019;-69
2021/05/14 03:54:30;;;;;;;1.58;0.80;;;11.40;68.30;;;;;;4945101;29;20061;-69
2021/05/14 03:56:55;;;;;;;2.67;0.90;;;11.40;68.40;;;;;;4944751;29;20431;-69
2021/05/14 03:59:21;;;;;;;1.83;1.33;;;11.40;68.70;;;;;;4944462;29;20031;-69
2021/05/14 04:01:46;;;;;;;1.10;0.80;;;11.30;68.90;;;;;;4944537;29;20035;-69
2021/05/14 04:04:12;;;;;;;1.30;0.85;;;11.40;68.90;;;;;;4946525;29;20036;-69
2021/05/14 04:06:38;;;;;;;3.53;1.10;;;11.30;69.00;;;;;;4945089;29;20043;-69
2021/05/14 04:09:05;;;;;;;2.92;0.80;;;11.30;68.80;;;;;;4944801;29;20036;-69
2021/05/14 04:16:43;;;;;;;3.22;0.95;;;11.30;69.10;;;;;;4944759;29;20115;-69
2021/05/14 04:19:08;;;;;;;1.52;0.98;;;11.20;69.10;;;;;;4946394;29;20188;-68
2021/05/14 04:21:34;;;;;;;2.13;0.80;;;11.20;68.80;;;;;;4930731;29;20203;-68
2021/05/14 04:24:00;;;;;;;2.20;1.20;;;11.20;69.30;;;;;;4930883;29;20109;-68
2021/05/14 04:26:25;;;;;;;3.13;0.85;;;11.20;69.10;;;;;;4947868;29;20088;-67
2021/05/14 04:28:51;;;;;;;1.95;1.05;;;11.20;69.00;;;;;;4947616;29;20032;-67
2021/05/14 04:31:16;;;;;;;1.45;0.80;;;11.20;69.10;;;;;;4949551;29;20222;-66
2021/05/14 04:33:42;;;;;;;1.33;0.80;;;11.10;69.30;;;;;;4948133;29;20043;-67
2021/05/14 04:36:08;;;;;;;2.85;1.05;;;11.10;69.30;;;;;;4947801;29;20047;-67
2021/05/14 04:38:33;;;;;;;2.88;1.00;;;11.20;69.40;;;;;;4947638;29;20040;-66
2021/05/14 04:40:59;;;;;;;1.10;0.85;;;11.20;69.60;;;;;;4947533;29;20086;-66
2021/05/14 04:43:24;;;;;;;2.20;0.90;;;11.20;69.50;;;;;;4930728;29;20035;-68
2021/05/14 04:45:50;;;;;;;4.45;1.20;;;11.20;69.40;;;;;;4949038;29;20316;-67
2021/05/14 04:48:15;;;;;;;3.38;0.80;;;11.20;69.30;;;;;;4947553;29;20039;-67
2021/05/14 04:50:41;;;;;;;3.53;1.00;;;11.20;69.50;;;;;;4947286;29;20031;-67
2021/05/14 04:53:10;;;;;;;1.55;0.90;;;11.20;69.70;;;;;;4947414;29;20087;-66
2021/05/14 04:55:36;;;;;;;1.85;0.77;;;11.20;69.70;;;;;;4947056;29;20035;-67
2021/05/14 04:58:02;;;;;;;1.85;1.00;;;11.30;69.80;;;;;;4949088;29;20039;-68
2021/05/14 05:00:28;;;;;;;3.22;1.10;;;11.30;69.70;;;;;;4947228;29;20094;-67
2021/05/14 05:02:54;;;;;;;3.42;1.13;;;11.30;69.80;;;;;;4947034;29;20192;-67
2021/05/14 05:05:19;;;;;;;1.85;0.82;;;11.30;69.50;;;;;;4947198;29;20039;-68
2021/05/14 05:07:45;;;;;;;2.92;1.10;;;11.30;69.70;;;;;;4947467;29;20099;-68
2021/05/14 05:10:10;;;;;;;2.00;0.98;;;11.30;69.70;;;;;;4948770;29;20024;-68
2021/05/14 05:12:36;;;;;;;1.23;0.90;;;11.30;70.10;;;;;;4947444;29;20063;-68
2021/05/14 05:15:02;;;;;;;3.58;1.10;;;11.30;70.40;;;;;;4947091;29;20039;-67
2021/05/14 05:17:28;;;;;;;1.73;1.00;;;11.30;70.30;;;;;;4946974;29;20048;-67
2021/05/14 05:19:55;;;;;;;2.10;0.93;;;11.40;70.30;;;;;;4947014;29;20031;-66
2021/05/14 05:22:21;;;;;;;2.75;1.00;;;11.40;70.40;;;;;;4946884;29;20039;-67
2021/05/14 05:24:46;;;;;;;6.50;1.08;;;11.40;70.30;;;;;;4948744;29;20044;-67
2021/05/14 05:27:13;;;;;;;2.83;1.48;;;11.40;70.60;;;;;;4946969;29;20039;-66
2021/05/14 05:29:38;;;;;;;2.75;0.88;;;11.40;70.80;;;;;;4946632;29;20222;-68
2021/05/14 05:32:04;;;;;;;2.75;1.00;;;11.40;70.30;;;;;;4945907;29;20039;-64
2021/05/14 05:34:30;;;;;;;3.88;1.20;;;11.40;70.40;;;;;;4946639;29;20043;-66
2021/05/14 05:36:56;;;;;;;2.92;1.20;;;11.40;70.50;;;;;;4948314;29;20335;-66
2021/05/14 05:39:22;;;;;;;1.60;1.00;;;11.50;70.20;;;;;;4946420;29;20050;-66
2021/05/14 05:41:47;;;;;;;3.08;0.80;;;11.50;70.50;;;;;;4946136;29;20335;-67
2021/05/14 05:44:13;;;;;;;3.28;0.98;;;11.50;70.50;;;;;;4946306;29;20235;-69
2021/05/14 05:46:38;;;;;;;3.13;0.80;;;11.50;70.10;;;;;;4929322;29;20339;-66
2021/05/14 05:49:04;;;;;;;2.38;1.10;;;11.50;70.30;;;;;;4948093;29;20035;-67
2021/05/14 05:51:31;;;;;;;2.85;1.20;;;11.60;70.40;;;;;;4929829;29;20035;-67
2021/05/14 05:53:56;;;;;;;2.45;1.10;;;11.60;70.10;;;;;;4945971;29;20339;-67
2021/05/14 05:56:23;;;;;;;4.03;0.90;;;11.60;70.20;;;;;;4945891;29;20054;-66
2021/05/14 05:58:49;;;;;;;2.00;0.90;;;11.60;70.20;;;;;;4945918;29;20040;-67
2021/05/14 06:01:14;;;;;;;1.48;0.80;;;11.80;70.20;;;;;;4947406;29;20078;-68
2021/05/14 06:03:40;;;;;;;2.45;0.98;;;11.80;70.30;;;;;;4946378;29;20043;-66
2021/05/14 06:06:05;;;;;;;2.28;0.80;;;11.80;70.10;;;;;;4945794;29;20044;-68
2021/05/14 06:08:31;;;;;;;2.33;0.85;;;11.90;70.00;;;;;;4945731;29;20039;-68
2021/05/14 06:10:57;;;;;;;2.90;0.80;;;11.90;69.90;;;;;;4945650;29;20208;-67
2021/05/14 06:13:22;;;;;;;1.33;0.90;;;11.90;69.80;;;;;;4945940;29;20042;-67
2021/05/14 06:15:48;;;;;;;1.70;0.80;;;11.90;69.70;;;;;;4947302;29;20032;-67
2021/05/14 06:18:14;;;;;;;4.43;0.70;;;12.00;69.70;;;;;;4928768;29;20032;-68
2021/05/14 06:20:43;;;;;;;1.50;0.80;;;12.00;69.80;;;;;;4945612;29;20043;-72
2021/05/14 06:23:09;;;;;;;3.55;0.85;;;12.10;69.50;;;;;;4929121;29;20032;-75
2021/05/14 06:25:35;;;;;;;2.50;1.10;;;12.20;69.20;;;;;;4928695;29;20374;-73
2021/05/14 06:28:01;;;;;;;1.83;1.00;;;12.20;68.90;;;;;;4930249;29;20040;-72
2021/05/14 06:30:26;;;;;;;5.13;0.80;;;12.30;69.10;;;;;;4928291;29;20063;-74
2021/05/14 06:32:52;;;;;;;3.03;0.80;;;12.30;68.90;;;;;;4928110;29;20327;-74
2021/05/14 06:35:17;;;;;;;1.13;0.80;;;12.40;68.80;;;;;;4912722;29;20050;-66
2021/05/14 06:37:46;;;;;;;2.05;0.82;;;12.50;68.70;;;;;;4945150;29;20903;-68
2021/05/14 06:40:12;;;;;;;4.15;0.82;;;12.50;69.00;;;;;;4930308;29;20042;-66
2021/05/14 06:42:37;;;;;;;3.75;0.90;;;12.60;68.40;;;;;;4928876;29;20039;-68
2021/05/14 06:45:06;;;;;;;3.25;0.80;;;12.70;68.50;;;;;;4945501;29;20322;-68
2021/05/14 06:47:32;;;;;;;2.38;0.80;;;12.80;68.20;;;;;;4945100;29;20039;-68
2021/05/14 06:49:57;;;;;;;2.20;0.80;;;12.90;67.90;;;;;;4945486;29;20043;-67
2021/05/14 06:52:23;;;;;;;0.90;0.68;;;13.00;67.70;;;;;;4945356;29;20024;-67
2021/05/14 06:54:48;;;;;;;1.88;0.80;;;13.10;67.10;;;;;;4946786;29;20035;-67
2021/05/14 06:57:14;;;;;;;1.52;0.70;;;13.30;66.30;;;;;;4944922;29;20032;-67
2021/05/14 06:59:39;;;;;;;2.25;1.10;;;13.30;66.10;;;;;;4945013;29;20098;-67
2021/05/14 07:02:05;;;;;;;2.28;0.82;;;13.40;66.40;;;;;;4945157;29;20333;-66
2021/05/14 07:04:31;;;;;;;2.08;0.90;;;13.40;65.30;;;;;;4912942;29;20059;-67
2021/05/14 07:06:56;;;;;;;1.27;0.70;;;13.60;65.80;;;;;;4947081;29;20038;-67
2021/05/14 07:09:22;;;;;;;3.50;0.73;;;13.70;65.80;;;;;;4928124;29;20230;-67
2021/05/14 07:11:47;;;;;;;3.08;0.90;;;13.90;64.40;;;;;;4945296;29;20435;-67
2021/05/14 07:14:13;;;;;;;2.35;0.93;;;14.00;64.00;;;;;;4945577;29;20031;-71
2021/05/14 07:16:38;;;;;;;1.90;0.80;;;14.00;63.60;;;;;;4945110;29;20051;-68
2021/05/14 07:19:04;;;;;;;1.40;0.70;;;14.10;63.30;;;;;;4929762;29;20067;-74
2021/05/14 07:21:31;;;;;;;1.05;0.70;;;14.20;63.50;;;;;;4928451;29;20048;-67
2021/05/14 07:23:57;;;;;;;2.22;1.00;;;14.30;63.30;;;;;;4945200;29;20103;-68
2021/05/14 07:26:25;;;;;;;5.07;0.88;;;14.40;62.80;;;;;;4944879;29;20349;-67
2021/05/14 07:28:50;;;;;;;2.72;0.77;;;14.40;62.60;;;;;;4944810;29;20035;-67
2021/05/14 07:31:16;;;;;;;2.50;1.40;;;14.50;62.50;;;;;;4946627;29;20272;-68
2021/05/14 07:33:44;;;;;;;4.05;0.70;;;14.50;61.10;;;;;;4944696;29;20107;-69
2021/05/14 07:36:09;;;;;;;1.02;0.70;;;14.70;62.10;;;;;;4944818;29;20070;-65
2021/05/14 07:38:35;;;;;;;3.03;0.70;;;14.80;61.70;;;;;;4944757;29;20040;-65
2021/05/14 07:41:00;;;;;;;1.23;0.60;;;14.80;61.40;;;;;;4944608;29;20351;-65
2021/05/14 07:43:26;;;;;;;2.58;0.60;;;14.90;60.80;;;;;;4944826;29;20330;-65
2021/05/14 07:45:51;;;;;;;1.60;0.70;;;14.90;61.00;;;;;;4946280;29;20052;-68
2021/05/14 07:48:20;;;;;;;2.63;0.68;;;14.90;61.30;;;;;;4944610;29;20039;-67
2021/05/14 07:50:47;;;;;;;2.78;0.90;;;15.00;61.00;;;;;;4945043;29;20039;-69
2021/05/14 07:53:12;;;;;;;0.80;0.50;;;15.10;60.30;;;;;;4928174;29;20064;-68
2021/05/14 07:55:38;;;;;;;3.45;0.60;;;15.10;60.30;;;;;;4945868;29;20059;-69
2021/05/14 07:58:04;;;;;;;2.92;0.75;;;15.10;60.70;;;;;;4950425;29;20031;-69
2021/05/14 08:00:29;;;;;;;7.32;0.88;;;15.10;60.00;;;;;;4948078;29;20098;-71
2021/05/14 08:02:55;;;;;;;2.85;0.85;;;15.20;59.30;;;;;;4948381;29;20040;-69
2021/05/14 08:05:20;;;;;;;6.90;0.75;;;15.30;60.00;;;;;;4947983;29;20043;-68
2021/05/14 08:07:58;;;;;;;1.35;0.70;;;15.30;60.00;;;;;;4947920;29;20043;-69
2021/05/14 08:10:24;;;;;;;3.25;0.68;;;15.40;59.40;;;;;;4948234;29;20223;-66
2021/05/14 08:12:49;;;;;;;3.17;0.77;;;15.50;59.00;;;;;;4932740;29;20035;-67
2021/05/14 08:15:15;;;;;;;1.77;0.70;;;15.50;59.60;;;;;;4948409;29;20043;-69
2021/05/14 08:17:40;;;;;;;2.97;0.65;;;15.50;58.60;;;;;;4931000;29;20044;-67
2021/05/14 08:20:07;;;;;;;3.22;1.00;;;15.50;58.70;;;;;;4948316;29;20335;-69
2021/05/14 08:22:33;;;;;;;1.63;0.80;;;15.60;58.70;;;;;;4948114;29;20047;-68
2021/05/14 08:24:59;;;;;;;2.50;0.60;;;15.70;58.60;;;;;;4949962;29;20224;-68
2021/05/14 08:27:24;;;;;;;1.85;0.60;;;15.80;57.80;;;;;;4948241;29;20050;-69
2021/05/14 08:29:50;;;;;;;5.53;0.60;;;15.90;55.10;;;;;;4947862;29;20151;-68
2021/05/14 08:32:15;;;;;;;2.35;0.63;;;16.00;57.10;;;;;;4947811;29;20234;-68
2021/05/14 08:34:41;;;;;;;1.20;0.60;;;16.00;56.80;;;;;;4947470;29;20247;-69
2021/05/14 08:37:06;;;;;;;1.95;0.60;;;16.10;57.30;;;;;;4949113;29;20041;-68
2021/05/14 08:39:32;;;;;;;2.00;0.70;;;16.20;57.20;;;;;;4947778;29;20050;-68
2021/05/14 08:42:01;;;;;;;2.75;0.70;;;16.30;57.00;;;;;;4947452;29;20105;-68
2021/05/14 08:44:27;;;;;;;1.17;0.60;;;16.30;56.90;;;;;;4947431;29;20075;-67
2021/05/14 08:46:52;;;;;;;2.25;0.73;;;16.30;57.10;;;;;;4947339;29;20251;-67
2021/05/14 08:49:18;;;;;;;2.60;0.70;;;16.40;57.00;;;;;;4932440;29;20319;-67
2021/05/14 08:51:44;;;;;;;2.75;0.70;;;16.50;56.30;;;;;;4948118;29;20041;-66
2021/05/14 08:54:10;;;;;;;3.42;0.50;;;16.50;56.30;;;;;;4930689;29;20050;-66
2021/05/14 08:56:35;;;;;;;3.83;0.75;;;16.60;55.50;;;;;;4947191;29;20208;-66
2021/05/14 08:59:01;;;;;;;4.97;0.80;;;16.70;56.70;;;;;;4947314;29;20079;-67
2021/05/14 09:01:28;;;;;;;1.63;0.70;;;16.80;57.30;;;;;;4946830;29;20369;-67
2021/05/14 09:03:58;;;;;;;1.77;0.73;;;16.80;56.20;;;;;;4948758;29;20036;-67
2021/05/14 09:06:36;;;;;;;2.90;0.60;;;16.90;55.90;;;;;;4947097;29;20040;-66
2021/05/14 09:09:05;;;;;;;2.45;0.77;;;16.90;55.70;;;;;;4947235;29;20043;-66
2021/05/14 09:11:36;;;;;;;2.30;0.68;;;16.90;55.70;;;;;;4947146;29;20143;-66
2021/05/14 09:14:01;;;;;;;1.95;0.45;;;16.90;54.90;;;;;;4947038;29;20047;-67
2021/05/14 09:16:39;;;;;;;1.70;0.70;;;17.00;54.00;;;;;;4946448;29;20035;-67
2021/05/14 09:19:05;;;;;;;1.98;0.60;;;17.10;54.20;;;;;;4948612;29;20091;-67
2021/05/14 09:21:30;;;;;;;6.47;0.70;;;17.20;52.90;;;;;;4946898;29;20062;-66
2021/05/14 09:23:56;;;;;;;1.58;0.60;;;17.20;54.10;;;;;;4946793;29;20032;-66
2021/05/14 09:26:21;;;;;;;1.85;0.60;;;17.30;53.70;;;;;;4946571;29;20034;-67
2021/05/14 09:28:47;;;;;;;5.57;0.90;;;17.20;53.70;;;;;;4929291;29;20051;-67
2021/05/14 09:31:19;;;;;;;2.05;0.60;;;17.30;52.90;;;;;;4948324;29;20038;-66
2021/05/14 09:33:52;;;;;;;1.85;0.57;;;17.20;51.70;;;;;;4946797;29;20027;-66
2021/05/14 09:36:23;;;;;;;5.95;0.93;;;17.20;53.00;;;;;;4946731;29;20270;-66
2021/05/14 09:38:49;;;;;;;2.97;0.70;;;17.20;51.90;;;;;;4946341;29;20066;-66
2021/05/14 09:41:42;;;;;;;3.65;0.60;;;17.30;52.80;;;;;;4929246;29;20099;-65
2021/05/14 09:44:08;;;;;;;2.50;0.70;;;17.30;52.00;;;;;;4942862;29;20212;-65
2021/05/14 09:46:55;;;;;;;1.42;0.57;;;17.30;51.70;;;;;;4946356;29;20334;-65
2021/05/14 09:49:22;;;;;;;1.17;0.50;;;17.30;51.80;;;;;;4946667;29;20027;-65
2021/05/14 09:51:49;;;;;;;2.00;0.70;;;17.30;52.10;;;;;;4947654;29;20042;-65
2021/05/14 09:54:29;;;;;;;2.03;0.57;;;17.30;51.50;;;;;;4945921;29;20054;-65
2021/05/14 09:57:41;;;;;;;3.13;0.50;;;17.30;48.90;;;;;;4945919;29;20046;-65
2021/05/14 10:00:06;;;;;;;2.58;0.95;;;17.30;51.10;;;;;;4945171;29;20060;-66
2021/05/14 10:02:36;;;;;;;1.52;0.57;;;17.30;50.20;;;;;;4945972;29;20040;-66
2021/05/14 10:05:05;;;;;;;2.05;0.50;;;17.30;50.70;;;;;;4945840;29;20036;-66
2021/05/14 10:07:31;;;;;;;2.85;0.52;;;17.20;50.50;;;;;;4945906;29;20033;-66
2021/05/14 10:10:00;;;;;;;4.57;1.40;;;17.30;51.40;;;;;;4947334;29;20039;-65
2021/05/14 10:12:25;;;;;;;4.82;1.48;;;17.40;50.00;;;;;;4945864;29;20044;-66
2021/05/14 10:14:51;;;;;;;2.40;0.88;;;17.50;50.80;;;;;;4945643;29;20083;-66
2021/05/14 10:17:17;;;;;;;2.15;0.52;;;17.50;50.20;;;;;;4945525;29;20040;-67
2021/05/14 10:19:43;;;;;;;1.50;0.50;;;17.60;49.50;;;;;;4944764;29;20048;-67
2021/05/14 10:22:09;;;;;;;1.85;0.70;;;17.50;50.60;;;;;;4930280;29;20126;-67
2021/05/14 10:24:47;;;;;;;0.57;0.40;;;17.50;51.10;;;;;;4929229;29;20307;-67
2021/05/14 10:27:20;;;;;;;1.05;0.50;;;17.30;48.70;;;;;;4945494;29;20111;-67
2021/05/14 10:29:47;;;;;;;1.05;0.57;;;17.40;49.80;;;;;;4945310;29;20039;-67
2021/05/14 10:32:13;;;;;;;1.25;0.40;;;17.50;49.30;;;;;;4945286;29;20043;-65
2021/05/14 10:34:38;;;;;;;1.27;0.38;;;17.60;49.00;;;;;;4945331;29;25886;-67
2021/05/14 10:37:04;;;;;;;0.55;0.43;;;17.60;49.30;;;;;;4946838;29;20039;-66
2021/05/14 10:39:34;;;;;;;1.38;0.50;;;17.60;48.40;;;;;;4945610;29;20067;-67
2021/05/14 10:42:01;;;;;;;1.45;0.50;;;17.60;47.00;;;;;;4945484;29;20043;-67
2021/05/14 10:44:50;;;;;;;3.35;0.60;;;17.70;48.40;;;;;;4945487;29;20313;-66
2021/05/14 10:47:25;;;;;;;2.05;0.60;;;17.70;49.00;;;;;;4945244;29;20083;-67
2021/05/14 10:49:55;;;;;;;1.23;0.52;;;17.60;49.50;;;;;;4945218;29;20042;-64
2021/05/14 10:52:20;;;;;;;2.65;0.70;;;17.60;49.10;;;;;;4945554;29;20057;-67
2021/05/14 10:54:46;;;;;;;1.00;0.60;;;17.50;50.00;;;;;;4946761;29;20044;-68
2021/05/14 10:57:34;;;;;;;0.98;0.57;;;17.50;49.50;;;;;;4945321;29;20087;-68
2021/05/14 11:00:29;;;;;;;1.73;0.60;;;17.40;49.80;;;;;;4944665;29;20070;-67
2021/05/14 11:03:10;;;;;;;3.25;0.60;;;17.30;50.10;;;;;;4929548;29;20039;-66
2021/05/14 11:05:38;;;;;;;1.63;0.60;;;17.30;50.70;;;;;;4945139;29;20112;-70
2021/05/14 11:08:04;;;;;;;1.55;0.88;;;17.30;51.10;;;;;;4945119;29;20043;-67
2021/05/14 11:10:31;;;;;;;3.33;0.73;;;17.30;50.70;;;;;;4944891;29;20235;-70
2021/05/14 11:12:57;;;;;;;2.95;0.82;;;17.20;50.50;;;;;;4946801;29;20087;-68
2021/05/14 11:15:32;;;;;;;1.90;0.93;;;17.30;49.40;;;;;;4945114;29;20039;-68
2021/05/14 11:18:09;;;;;;;1.70;0.60;;;17.30;49.80;;;;;;4944738;29;20378;-68
2021/05/14 11:20:41;;;;;;;2.40;0.55;;;17.20;49.20;;;;;;4945108;29;20040;-67
2021/05/14 11:23:29;;;;;;;3.63;0.63;;;17.20;49.00;;;;;;4944650;29;20036;-68
2021/05/14 11:25:55;;;;;;;1.00;0.50;;;17.30;47.90;;;;;;4928057;29;20102;-67
2021/05/14 11:28:39;;;;;;;1.42;0.60;;;17.30;50.10;;;;;;4944587;29;20331;-72
2021/05/14 11:31:04;;;;;;;5.72;0.60;;;17.30;50.40;;;;;;4948746;29;20240;-66
2021/05/14 11:33:30;;;;;;;1.05;0.50;;;17.40;51.00;;;;;;4948755;29;20038;-65
2021/05/14 11:35:56;;;;;;;4.15;0.60;;;17.30;51.40;;;;;;4948920;29;20078;-65
2021/05/14 11:38:21;;;;;;;3.03;0.70;;;17.40;50.30;;;;;;4948484;29;20036;-68
2021/05/14 11:40:49;;;;;;;2.10;0.50;;;17.30;49.10;;;;;;4948492;29;20043;-66
2021/05/14 11:43:15;;;;;;;1.02;0.50;;;17.30;49.00;;;;;;4950146;29;20032;-66
2021/05/14 11:45:44;;;;;;;1.65;0.50;;;17.30;50.70;;;;;;4948760;29;20036;-66
2021/05/14 11:48:11;;;;;;;1.17;0.50;;;17.20;50.20;;;;;;4948166;29;20288;-66
2021/05/14 11:50:38;;;;;;;1.67;0.47;;;17.20;50.00;;;;;;4948481;29;20066;-68
2021/05/14 11:53:05;;;;;;;1.25;0.55;;;17.10;48.90;;;;;;4948465;29;20060;-66
2021/05/14 11:55:32;;;;;;;1.88;0.50;;;17.10;48.70;;;;;;4947642;29;20046;-66
2021/05/14 11:57:58;;;;;;;2.80;0.50;;;17.10;49.00;;;;;;4949968;29;20031;-67
2021/05/14 12:00:36;;;;;;;1.20;0.50;;;17.10;49.00;;;;;;4948128;29;20080;-68
2021/05/14 12:03:06;;;;;;;3.35;0.63;;;17.10;48.50;;;;;;4948149;29;20050;-67
2021/05/14 12:05:32;;;;;;;1.92;0.60;;;17.10;48.40;;;;;;4931284;29;20231;-65
2021/05/14 12:08:17;;;;;;;1.25;0.50;;;17.20;49.00;;;;;;4947925;29;20087;-69
2021/05/14 12:10:54;;;;;;;0.88;0.50;;;17.30;48.70;;;;;;4947947;29;20229;-68
2021/05/14 12:13:28;;;;;;;1.98;0.50;;;17.30;48.10;;;;;;4947922;29;20031;-70
2021/05/14 12:16:14;;;;;;;4.13;0.68;;;17.40;48.60;;;;;;4950078;29;20323;-68
2021/05/14 12:18:48;;;;;;;2.47;0.50;;;17.60;48.10;;;;;;4948208;29;20123;-69
2021/05/14 12:21:25;;;;;;;1.55;0.77;;;17.60;46.10;;;;;;4947962;29;20102;-69
2021/05/14 12:23:51;;;;;;;4.03;0.68;;;17.70;48.80;;;;;;4932305;29;20035;-73
2021/05/14 12:26:17;;;;;;;0.93;0.60;;;17.70;49.30;;;;;;4947468;29;20039;-69
2021/05/14 12:28:49;;;;;;;4.95;0.77;;;17.80;49.40;;;;;;4947536;29;20322;-72
2021/05/14 12:31:22;;;;;;;0.57;0.47;;;17.80;49.40;;;;;;4932891;29;20032;-68
2021/05/14 12:33:55;;;;;;;1.17;0.60;;;17.80;49.20;;;;;;4948870;29;20472;-69
2021/05/14 12:36:25;;;;;;;0.55;0.40;;;17.80;47.50;;;;;;4947936;29;20335;-69
2021/05/14 12:38:51;;;;;;;0.77;0.50;;;17.80;47.20;;;;;;4931338;29;20040;-70
2021/05/14 12:41:30;;;;;;;1.95;0.60;;;17.80;46.30;;;;;;4947009;29;20047;-73
2021/05/14 12:44:15;;;;;;;1.40;0.98;;;17.90;46.50;;;;;;4947449;29;20094;-69
2021/05/14 12:46:59;;;;;;;0.98;0.50;;;18.00;48.20;;;;;;4947269;29;20083;-70
2021/05/14 12:49:30;;;;;;;6.95;0.60;;;18.10;45.10;;;;;;4947788;29;20028;-72
2021/05/14 12:52:02;;;;;;;1.17;0.50;;;18.10;45.50;;;;;;4932377;29;20031;-71
2021/05/14 12:54:27;;;;;;;2.20;0.60;;;18.30;46.00;;;;;;4947666;29;20331;-72